createdAt,value
2022-08-05T00:00:22.991Z,60.05
2022-08-05T00:03:08.670Z,61.28
2022-08-05T00:06:05.142Z,64.26
2022-08-05T00:08:37.022Z,65.11
2022-08-05T00:11:20.509Z,60.46
2022-08-05T00:13:59.222Z,58.45
2022-08-05T00:16:35.363Z,59.29
2022-08-05T00:19:07.907Z,60.79
2022-08-05T00:21:38.493Z,62.21
2022-08-05T00:24:18.921Z,65.04
2022-08-05T00:26:54.871Z,61.50
2022-08-05T00:29:26.150Z,58.73
2022-08-05T00:32:13.385Z,57.68
2022-08-05T00:35:05.143Z,59.32
2022-08-05T00:37:52.481Z,60.47
2022-08-05T00:40:29.003Z,62.96
2022-08-05T00:43:01.020Z,60.97
2022-08-05T00:45:39.046Z,57.98
2022-08-05T00:48:13.385Z,57.56
2022-08-05T00:50:46.561Z,59.25
2022-08-05T00:54:00.206Z,61.12
2022-08-05T00:56:09.245Z,62.59
2022-08-05T00:58:42.442Z,61.49
2022-08-05T01:01:24.671Z,60.34
2022-08-05T01:04:13.929Z,57.05
2022-08-05T01:06:48.464Z,57.54
2022-08-05T01:09:20.011Z,58.80
2022-08-05T01:11:52.176Z,60.97
2022-08-05T01:14:27.197Z,62.30
2022-08-05T01:17:03.839Z,64.60
2022-08-05T01:20:00.846Z,62.18
2022-08-05T01:22:40.549Z,58.04
2022-08-05T01:25:23.755Z,58.16
2022-08-05T01:28:23.164Z,60.64
2022-08-05T01:30:56.044Z,62.11
2022-08-05T01:33:35.401Z,63.29
2022-08-05T01:36:13.212Z,61.59
2022-08-05T01:38:49.877Z,58.61
2022-08-05T01:41:25.570Z,58.26
2022-08-05T01:43:57.697Z,59.50
2022-08-05T01:46:43.012Z,61.18
2022-08-05T01:49:23.877Z,63.29
2022-08-05T01:51:58.730Z,62.83
2022-08-05T01:54:33.366Z,59.32
2022-08-05T01:58:12.245Z,59.16
2022-08-05T01:59:56.759Z,60.44
2022-08-05T02:02:31.013Z,62.90
2022-08-05T02:05:03.281Z,62.69
2022-08-05T02:07:35.075Z,61.90
2022-08-05T02:10:08.001Z,58.23
2022-08-05T02:12:42.902Z,58.42
2022-08-05T02:15:15.562Z,60.31
2022-08-05T02:18:28.785Z,62.71
2022-08-05T02:20:47.416Z,62.46
2022-08-05T02:23:22.699Z,59.24
2022-08-05T02:25:55.377Z,59.07
2022-08-05T02:28:32.170Z,60.46
2022-08-05T02:31:14.839Z,63.31
2022-08-05T02:33:49.286Z,63.28
2022-08-05T02:36:31.571Z,59.45
2022-08-05T02:39:04.043Z,59.25
2022-08-05T02:41:57.657Z,60.98
2022-08-05T02:44:31.748Z,63.67
2022-08-05T02:47:03.113Z,62.43
2022-08-05T02:49:38.231Z,60.63
2022-08-05T02:52:13.650Z,58.67
2022-08-05T02:54:58.235Z,59.29
2022-08-05T02:58:20.177Z,60.05
2022-08-05T03:00:25.478Z,62.96
2022-08-05T03:02:58.694Z,61.99
2022-08-05T03:06:55.042Z,61.22
2022-08-05T03:08:29.664Z,58.42
2022-08-05T03:11:53.587Z,58.63
2022-08-05T03:14:03.383Z,59.48
2022-08-05T03:16:35.692Z,64.04
2022-08-05T03:19:16.987Z,63.37
2022-08-05T03:21:50.862Z,60.83
2022-08-05T03:24:29.563Z,58.59
2022-08-05T03:27:01.663Z,58.22
2022-08-05T03:29:45.990Z,61.18
2022-08-05T03:32:30.989Z,63.73
2022-08-05T03:35:02.190Z,63.01
2022-08-05T03:37:45.734Z,61.27
2022-08-05T03:40:24.128Z,58.58
2022-08-05T03:43:15.927Z,59.23
2022-08-05T03:45:58.022Z,60.90
2022-08-05T03:48:30.129Z,63.75
2022-08-05T03:52:37.708Z,63.32
2022-08-05T03:55:53.957Z,62.39
2022-08-05T03:56:49.934Z,59.14
2022-08-05T03:59:23.019Z,59.18
2022-08-05T04:01:58.863Z,61.90
2022-08-05T04:04:30.842Z,63.57
2022-08-05T04:07:01.624Z,61.81
2022-08-05T04:09:36.534Z,60.99
2022-08-05T04:12:24.647Z,61.24
2022-08-05T04:14:57.724Z,57.79
2022-08-05T04:17:36.358Z,58.01
2022-08-05T04:20:22.131Z,60.43
2022-08-05T04:22:52.023Z,63.00
2022-08-05T04:25:38.702Z,62.71
2022-08-05T04:28:14.089Z,59.94
2022-08-05T04:30:45.717Z,58.66
2022-08-05T04:33:16.381Z,59.77
2022-08-05T04:36:16.128Z,61.37
2022-08-05T04:38:58.230Z,63.13
2022-08-05T04:41:36.614Z,61.73
2022-08-05T04:44:09.550Z,58.78
2022-08-05T04:46:40.881Z,58.67
2022-08-05T04:49:17.515Z,61.09
2022-08-05T04:52:00.251Z,63.00
2022-08-05T04:54:31.099Z,62.01
2022-08-05T04:57:03.066Z,58.99
2022-08-05T04:59:39.002Z,58.52
2022-08-05T05:02:36.766Z,61.03
2022-08-05T05:05:02.979Z,62.73
2022-08-05T05:07:35.557Z,61.77
2022-08-05T05:10:06.701Z,59.17
2022-08-05T05:12:37.534Z,58.36
2022-08-05T05:15:10.639Z,60.47
2022-08-05T05:17:56.929Z,62.20
2022-08-05T05:20:29.029Z,62.93
2022-08-05T05:23:04.181Z,60.95
2022-08-05T05:25:41.002Z,58.36
2022-08-05T05:28:10.698Z,59.23
2022-08-05T05:30:41.243Z,60.42
2022-08-05T05:33:16.896Z,61.98
2022-08-05T05:35:48.687Z,63.38
2022-08-05T05:38:22.874Z,60.59
2022-08-05T05:40:58.402Z,57.99
2022-08-05T05:43:56.892Z,57.92
2022-08-05T05:46:21.750Z,60.19
2022-08-05T05:48:52.615Z,60.49
2022-08-05T05:51:23.983Z,61.83
2022-08-05T05:53:59.021Z,62.66
2022-08-05T05:56:32.602Z,59.41
2022-08-05T05:59:06.981Z,58.06
2022-08-05T06:01:40.007Z,59.24
2022-08-05T06:04:12.716Z,60.29
2022-08-05T06:06:43.110Z,61.38
2022-08-05T06:09:27.458Z,62.06
2022-08-05T06:12:09.708Z,62.73
2022-08-05T06:14:45.015Z,59.60
2022-08-05T06:17:22.638Z,57.75
2022-08-05T06:19:57.052Z,58.78
2022-08-05T06:22:33.477Z,58.93
2022-08-05T06:25:25.288Z,60.23
2022-08-05T06:28:10.998Z,60.09
2022-08-05T06:30:46.472Z,60.80
2022-08-05T06:33:19.362Z,61.75
2022-08-05T06:36:03.508Z,61.74
2022-08-05T06:38:38.757Z,61.68
2022-08-05T06:41:17.832Z,61.62
2022-08-05T06:43:59.228Z,61.85
2022-08-05T06:46:31.180Z,61.78
2022-08-05T06:49:03.538Z,61.57
2022-08-05T06:51:40.871Z,62.01
2022-08-05T06:54:12.052Z,61.41
2022-08-05T06:56:54.994Z,61.28
2022-08-05T06:59:42.346Z,61.11
2022-08-05T07:02:27.279Z,61.05
2022-08-05T07:05:00.328Z,60.83
2022-08-05T07:07:43.029Z,60.36
2022-08-05T07:10:14.876Z,60.21
2022-08-05T07:13:04.936Z,60.16
2022-08-05T07:16:01.977Z,59.81
2022-08-05T07:18:35.362Z,58.96
2022-08-05T07:21:08.391Z,59.52
2022-08-05T07:23:40.528Z,59.21
2022-08-05T07:26:22.892Z,58.76
2022-08-05T07:28:56.987Z,58.40
2022-08-05T07:31:40.716Z,58.33
2022-08-05T07:34:27.436Z,58.41
2022-08-05T07:36:59.295Z,58.29
2022-08-05T07:40:04.505Z,57.93
2022-08-05T07:42:33.648Z,57.49
2022-08-05T07:45:09.343Z,56.86
2022-08-05T07:47:42.516Z,56.36
2022-08-05T07:50:16.677Z,56.44
2022-08-05T07:52:47.996Z,56.58
2022-08-05T07:56:05.627Z,56.26
2022-08-05T07:58:09.499Z,55.75
2022-08-05T08:01:00.117Z,55.50
2022-08-05T08:03:44.290Z,54.90
2022-08-05T08:06:16.441Z,54.76
2022-08-05T08:08:46.981Z,54.31
2022-08-05T08:11:18.214Z,54.29
2022-08-05T08:14:00.723Z,54.39
2022-08-05T08:16:35.948Z,53.99
2022-08-05T08:20:21.994Z,54.15
2022-08-05T08:22:16.006Z,54.23
2022-08-05T08:24:51.235Z,54.07
2022-08-05T08:27:23.565Z,53.37
2022-08-05T08:30:30.188Z,53.15
2022-08-05T08:33:08.101Z,53.25
2022-08-05T08:35:40.891Z,52.83
2022-08-05T08:38:16.414Z,52.83
2022-08-05T08:40:51.437Z,52.91
2022-08-05T08:45:18.731Z,52.42
2022-08-05T08:46:15.466Z,52.39
2022-08-05T08:49:04.137Z,52.43
2022-08-05T08:52:04.052Z,51.36
2022-08-05T08:54:32.039Z,50.68
2022-08-05T08:57:02.953Z,50.86
2022-08-05T08:59:33.927Z,50.29
2022-08-05T09:02:08.570Z,50.19
2022-08-05T09:04:58.164Z,48.90
2022-08-05T09:07:39.478Z,49.26
2022-08-05T09:10:10.921Z,50.06
2022-08-05T09:12:41.912Z,49.48
2022-08-05T09:15:12.880Z,49.15
2022-08-05T09:17:49.744Z,47.74
2022-08-05T09:20:36.529Z,47.25
2022-08-05T09:23:18.766Z,48.27
2022-08-05T09:26:01.234Z,47.97
2022-08-05T09:28:35.470Z,48.19
2022-08-05T09:31:22.988Z,48.55
2022-08-05T09:33:59.810Z,47.93
2022-08-05T09:36:33.254Z,47.49
2022-08-05T09:39:18.544Z,47.19
2022-08-05T09:41:59.701Z,46.15
2022-08-05T09:44:37.883Z,46.83
2022-08-05T09:47:12.598Z,46.42
2022-08-05T09:50:01.210Z,47.04
2022-08-05T09:52:34.031Z,46.55
2022-08-05T09:55:57.261Z,46.54
2022-08-05T09:57:58.555Z,46.08
2022-08-05T10:00:29.618Z,45.61
2022-08-05T10:03:09.964Z,45.70
2022-08-05T10:05:42.204Z,44.95
2022-08-05T10:08:37.635Z,45.33
2022-08-05T10:11:05.946Z,45.02
2022-08-05T10:13:45.572Z,44.90
2022-08-05T10:16:32.212Z,44.70
2022-08-05T10:19:09.509Z,44.39
2022-08-05T10:21:42.323Z,43.68
2022-08-05T10:24:15.141Z,40.42
2022-08-05T10:26:51.563Z,40.37
2022-08-05T10:30:41.334Z,39.70
2022-08-05T10:32:51.906Z,40.70
2022-08-05T10:35:05.263Z,39.98
2022-08-05T10:37:40.093Z,40.72
2022-08-05T10:40:20.899Z,41.12
2022-08-05T10:43:01.909Z,40.03
2022-08-05T10:45:40.280Z,39.03
2022-08-05T10:48:39.603Z,39.88
2022-08-05T10:51:29.096Z,39.16
2022-08-05T10:54:05.876Z,39.14
2022-08-05T10:56:54.160Z,38.84
2022-08-05T11:00:04.363Z,37.42
2022-08-05T11:02:34.665Z,38.12
2022-08-05T11:05:10.559Z,38.26
2022-08-05T11:08:02.593Z,36.70
2022-08-05T11:10:31.286Z,37.82
2022-08-05T11:13:02.031Z,37.24
2022-08-05T11:16:00.044Z,36.40
2022-08-05T11:18:25.473Z,36.73
2022-08-05T11:20:56.321Z,35.91
2022-08-05T11:24:02.253Z,35.84
2022-08-05T11:26:32.114Z,35.08
2022-08-05T11:29:12.856Z,34.94
2022-08-05T11:31:57.835Z,33.24
2022-08-05T11:34:47.614Z,32.49
2022-08-05T11:38:37.069Z,33.84
2022-08-05T11:40:47.234Z,33.63
2022-08-05T11:43:58.479Z,32.98
2022-08-05T11:46:27.026Z,32.92
2022-08-05T11:49:04.484Z,33.09
2022-08-05T11:51:43.600Z,33.37
2022-08-05T11:54:17.124Z,33.16
2022-08-05T11:56:53.230Z,32.56
2022-08-05T11:59:25.518Z,33.27
2022-08-05T12:01:59.854Z,31.96
2022-08-05T12:04:40.863Z,31.61
2022-08-05T12:07:14.646Z,31.20
2022-08-05T12:09:53.310Z,31.36
2022-08-05T12:12:24.715Z,30.96
2022-08-05T12:14:57.081Z,31.32
2022-08-05T12:18:00.756Z,31.75
2022-08-05T12:20:28.736Z,30.37
2022-08-05T12:23:11.198Z,30.14
2022-08-05T12:25:52.058Z,29.11
2022-08-05T12:28:33.799Z,29.41
2022-08-05T12:31:05.759Z,29.11
2022-08-05T12:33:38.519Z,27.63
2022-08-05T12:36:10.243Z,27.23
2022-08-05T12:38:41.606Z,25.54
2022-08-05T12:41:14.129Z,27.07
2022-08-05T12:44:03.318Z,26.97
2022-08-05T12:46:35.479Z,26.63
2022-08-05T12:49:13.791Z,26.64
2022-08-05T12:52:14.425Z,26.04
2022-08-05T12:54:43.315Z,25.10
2022-08-05T12:57:15.482Z,25.97
2022-08-05T13:01:57.464Z,25.76
2022-08-05T13:02:39.982Z,26.22
2022-08-05T13:05:14.483Z,27.04
2022-08-05T13:07:59.531Z,25.81
2022-08-05T13:10:32.460Z,24.33
2022-08-05T13:13:08.934Z,24.96
2022-08-05T13:15:50.526Z,25.54
2022-08-05T13:18:21.902Z,24.55
2022-08-05T13:20:54.649Z,23.69
2022-08-05T13:23:25.476Z,24.18
2022-08-05T13:25:59.321Z,24.88
2022-08-05T13:28:32.076Z,25.64
2022-08-05T13:31:03.327Z,25.10
2022-08-05T13:34:22.357Z,25.71
2022-08-05T13:36:33.574Z,25.76
2022-08-05T13:39:24.117Z,25.37
2022-08-05T13:41:55.601Z,25.91
2022-08-05T13:44:26.750Z,26.13
2022-08-05T13:47:04.608Z,26.25
2022-08-05T13:49:45.235Z,26.41
2022-08-05T13:52:18.382Z,26.01
2022-08-05T13:54:53.514Z,25.96
2022-08-05T13:57:24.467Z,25.71
2022-08-05T13:59:59.310Z,25.71
2022-08-05T14:02:40.030Z,24.42
2022-08-05T14:05:29.324Z,23.91
2022-08-05T14:08:19.828Z,24.56
2022-08-05T14:10:51.396Z,24.39
2022-08-05T14:13:23.557Z,24.30
2022-08-05T14:16:05.783Z,24.54
2022-08-05T14:18:40.076Z,25.05
2022-08-05T14:22:09.042Z,25.32
2022-08-05T14:24:03.662Z,24.27
2022-08-05T14:26:37.012Z,23.77
2022-08-05T14:29:16.589Z,23.76
2022-08-05T14:32:03.751Z,24.30
2022-08-05T14:34:38.549Z,24.38
2022-08-05T14:37:13.364Z,23.71
2022-08-05T14:39:49.401Z,23.93
2022-08-05T14:42:25.010Z,24.68
2022-08-05T14:44:56.673Z,24.61
2022-08-05T14:48:03.726Z,25.11
2022-08-05T14:50:19.276Z,24.47
2022-08-05T14:52:53.493Z,24.22
2022-08-05T14:55:39.088Z,24.36
2022-08-05T14:58:13.800Z,24.32
2022-08-05T15:00:58.562Z,24.03
2022-08-05T15:03:34.115Z,23.86
2022-08-05T15:06:15.335Z,24.45
2022-08-05T15:09:01.542Z,24.55
2022-08-05T15:11:51.110Z,24.60
2022-08-05T15:14:34.921Z,25.19
2022-08-05T15:17:44.813Z,25.50
2022-08-05T15:20:05.565Z,26.42
2022-08-05T15:22:34.892Z,26.95
2022-08-05T15:25:11.848Z,27.75
2022-08-05T15:27:52.331Z,28.27
2022-08-05T15:30:25.756Z,28.53
2022-08-05T15:32:57.250Z,28.83
2022-08-05T15:35:28.083Z,29.27
2022-08-05T15:38:34.020Z,30.20
2022-08-05T15:41:21.210Z,29.82
2022-08-05T15:43:50.209Z,30.18
2022-08-05T15:46:24.467Z,30.49
2022-08-05T15:49:01.023Z,30.83
2022-08-05T15:52:12.481Z,31.35
2022-08-05T15:54:34.367Z,31.86
2022-08-05T15:57:08.985Z,31.86
2022-08-05T15:59:40.969Z,32.29
2022-08-05T16:02:14.835Z,32.40
2022-08-05T16:04:55.964Z,33.05
2022-08-05T16:07:29.599Z,32.88
2022-08-05T16:10:00.512Z,33.17
2022-08-05T16:12:31.456Z,33.06
2022-08-05T16:15:03.564Z,33.19
2022-08-05T16:17:34.296Z,33.33
2022-08-05T16:20:11.530Z,33.62
2022-08-05T16:22:42.945Z,33.77
2022-08-05T16:25:13.771Z,33.39
2022-08-05T16:28:00.413Z,33.46
2022-08-05T16:30:46.673Z,33.07
2022-08-05T16:33:24.067Z,33.61
2022-08-05T16:35:57.631Z,34.42
2022-08-05T16:38:29.117Z,34.76
2022-08-05T16:41:01.365Z,34.95
2022-08-05T16:43:46.043Z,34.07
2022-08-05T16:46:24.271Z,33.68
2022-08-05T16:48:55.823Z,33.56
2022-08-05T16:51:42.768Z,34.06
2022-08-05T16:54:31.932Z,34.76
2022-08-05T16:57:03.669Z,34.85
2022-08-05T17:00:01.380Z,34.32
2022-08-05T17:02:28.673Z,34.65
2022-08-05T17:05:01.644Z,34.60
2022-08-05T17:07:39.117Z,35.07
2022-08-05T17:10:14.623Z,35.02
2022-08-05T17:12:51.599Z,35.26
2022-08-05T17:15:23.224Z,36.05
2022-08-05T17:18:00.523Z,36.11
2022-08-05T17:20:31.648Z,36.17
2022-08-05T17:23:03.218Z,36.55
2022-08-05T17:25:39.997Z,36.86
2022-08-05T17:28:11.478Z,36.86
2022-08-05T17:30:50.565Z,36.98
2022-08-05T17:33:23.246Z,37.37
2022-08-05T17:36:08.918Z,37.90
2022-08-05T17:38:41.834Z,38.05
2022-08-05T17:42:16.449Z,38.39
2022-08-05T17:44:04.251Z,38.45
2022-08-05T17:46:35.274Z,39.02
2022-08-05T17:49:05.606Z,39.26
2022-08-05T17:51:40.470Z,39.45
2022-08-05T17:54:11.216Z,39.49
2022-08-05T17:56:45.095Z,39.85
2022-08-05T17:59:20.937Z,39.88
2022-08-05T18:01:53.925Z,40.31
2022-08-05T18:04:27.907Z,40.53
2022-08-05T18:07:02.048Z,40.74
2022-08-05T18:09:58.588Z,40.92
2022-08-05T18:12:24.511Z,40.94
2022-08-05T18:14:56.303Z,41.46
2022-08-05T18:17:59.268Z,41.72
2022-08-05T18:20:17.944Z,41.95
2022-08-05T18:22:54.630Z,42.61
2022-08-05T18:25:33.145Z,42.94
2022-08-05T18:28:05.132Z,43.62
2022-08-05T18:30:36.239Z,43.85
2022-08-05T18:33:13.550Z,44.30
2022-08-05T18:36:00.723Z,44.54
2022-08-05T18:38:37.127Z,44.78
2022-08-05T18:41:56.289Z,45.24
2022-08-05T18:44:05.757Z,45.80
2022-08-05T18:46:37.469Z,45.86
2022-08-05T18:49:30.442Z,45.93
2022-08-05T18:52:35.661Z,46.13
2022-08-05T18:55:10.337Z,46.31
2022-08-05T18:57:50.306Z,46.58
2022-08-05T19:00:29.044Z,46.98
2022-08-05T19:03:04.196Z,47.12
2022-08-05T19:06:12.226Z,47.43
2022-08-05T19:08:30.853Z,47.60
2022-08-05T19:11:04.461Z,48.03
2022-08-05T19:13:36.603Z,48.16
2022-08-05T19:16:22.227Z,48.21
2022-08-05T19:18:58.512Z,48.66
2022-08-05T19:21:29.541Z,49.30
2022-08-05T19:24:12.352Z,49.38
2022-08-05T19:26:54.903Z,50.41
2022-08-05T19:29:36.446Z,49.94
2022-08-05T19:32:11.125Z,50.07
2022-08-05T19:34:42.061Z,50.61
2022-08-05T19:37:29.879Z,50.99
2022-08-05T19:40:17.113Z,51.42
2022-08-05T19:43:00.889Z,51.93
2022-08-05T19:45:37.178Z,53.42
2022-08-05T19:48:14.233Z,52.91
2022-08-05T19:50:45.774Z,53.06
2022-08-05T19:53:16.302Z,53.78
2022-08-05T19:56:14.632Z,54.28
2022-08-05T19:58:57.922Z,54.15
2022-08-05T20:01:48.531Z,54.07
2022-08-05T20:04:19.356Z,54.03
2022-08-05T20:06:50.745Z,54.80
2022-08-05T20:09:21.164Z,56.18
2022-08-05T20:11:51.674Z,56.07
2022-08-05T20:14:27.170Z,56.18
2022-08-05T20:16:59.666Z,55.89
2022-08-05T20:19:36.351Z,55.68
2022-08-05T20:22:12.198Z,56.11
2022-08-05T20:24:42.452Z,56.48
2022-08-05T20:27:15.823Z,57.31
2022-08-05T20:29:52.272Z,57.88
2022-08-05T20:32:27.916Z,57.63
2022-08-05T20:34:58.643Z,57.36
2022-08-05T20:38:05.297Z,57.89
2022-08-05T20:40:20.322Z,57.59
2022-08-05T20:42:50.824Z,57.98
2022-08-05T20:45:22.687Z,58.04
2022-08-05T20:48:16.635Z,58.36
2022-08-05T20:50:47.445Z,58.67
2022-08-05T20:53:37.025Z,59.04
2022-08-05T20:56:09.594Z,59.81
2022-08-05T20:58:40.287Z,60.05
2022-08-05T21:01:11.289Z,60.17
2022-08-05T21:03:47.953Z,59.77
2022-08-05T21:06:28.412Z,59.59
2022-08-05T21:09:00.367Z,60.24
2022-08-05T21:12:06.612Z,59.99
2022-08-05T21:14:22.302Z,60.11
2022-08-05T21:16:57.707Z,60.42
2022-08-05T21:19:28.449Z,60.76
2022-08-05T21:21:59.273Z,61.02
2022-08-05T21:24:30.076Z,61.20
2022-08-05T21:27:00.847Z,61.17
2022-08-05T21:29:32.530Z,61.38
2022-08-05T21:32:11.722Z,64.56
2022-08-05T21:34:55.852Z,64.77
2022-08-05T21:37:41.201Z,58.18
2022-08-05T21:40:14.136Z,57.55
2022-08-05T21:42:45.787Z,58.41
2022-08-05T21:45:24.902Z,58.85
2022-08-05T21:48:08.775Z,59.55
2022-08-05T21:50:39.902Z,60.31
2022-08-05T21:53:17.561Z,60.47
2022-08-05T21:56:05.322Z,60.45
2022-08-05T21:58:42.253Z,61.03
2022-08-05T22:01:24.769Z,61.45
2022-08-05T22:03:56.141Z,63.94
2022-08-05T22:06:35.451Z,64.57
2022-08-05T22:09:13.751Z,60.18
2022-08-05T22:11:46.722Z,57.68
2022-08-05T22:14:37.337Z,58.37
2022-08-05T22:17:09.884Z,59.13
2022-08-05T22:20:00.227Z,61.04
2022-08-05T22:22:32.432Z,62.72
2022-08-05T22:25:27.300Z,65.42
2022-08-05T22:28:12.155Z,64.48
2022-08-05T22:30:56.869Z,59.49
2022-08-05T22:33:56.726Z,57.68
2022-08-05T22:36:19.474Z,60.33
2022-08-05T22:38:54.980Z,61.07
2022-08-05T22:42:10.273Z,64.29
2022-08-05T22:44:18.968Z,63.51
2022-08-05T22:46:50.104Z,59.71
2022-08-05T22:50:17.418Z,58.35
2022-08-05T22:52:22.957Z,59.21
2022-08-05T22:55:04.447Z,59.99
2022-08-05T22:57:51.098Z,64.28
2022-08-05T23:00:22.855Z,63.63
2022-08-05T23:02:54.096Z,61.35
2022-08-05T23:05:25.036Z,58.81
2022-08-05T23:07:55.868Z,58.16
2022-08-05T23:10:26.706Z,60.03
2022-08-05T23:12:57.449Z,62.76
2022-08-05T23:15:34.913Z,63.98
2022-08-05T23:18:15.836Z,61.54
2022-08-05T23:20:46.784Z,59.39
2022-08-05T23:23:19.517Z,59.82
2022-08-05T23:25:55.542Z,63.29
2022-08-05T23:28:29.227Z,63.01
2022-08-05T23:31:16.297Z,61.35
2022-08-05T23:34:04.060Z,60.68
2022-08-05T23:36:38.783Z,60.40
2022-08-05T23:39:16.595Z,60.31
2022-08-05T23:41:56.338Z,59.86
2022-08-05T23:44:31.429Z,61.25
2022-08-05T23:47:15.224Z,64.79
2022-08-05T23:49:46.713Z,63.07
2022-08-05T23:52:30.830Z,63.13
2022-08-05T23:55:05.449Z,62.28
2022-08-05T23:57:38.074Z,61.25
